Time;durP1;ratioP1;P1;durP2;ratioP2;P2;SDS_P1;SDS_P2;PMS_P1;PMS_P2;Temp;Humidity;BMP_temperature;BMP_pressure;BME280_temperature;BME280_humidity;BME280_pressure;Samples;Min_cycle;Max_cycle;Signal;HPM_P1;HPM_P2
2023/02/22 00:01:06;;;;;;;84.00;41.58;;;;;;;6.55;100.00;101539.19;10513136;28;20115;-67
2023/02/22 00:06:06;;;;;;;74.05;37.55;;;;;;;6.52;100.00;101529.59;10521211;28;20037;-68
2023/02/22 00:11:07;;;;;;;75.20;39.05;;;;;;;6.52;100.00;101530.44;10501411;28;20065;-67
2023/02/22 00:16:07;;;;;;;92.18;42.70;;;;;;;6.39;100.00;101521.91;10501093;28;20053;-68
2023/02/22 00:21:09;;;;;;;88.25;42.45;;;;;;;6.34;100.00;101518.00;10500350;28;20039;-68
2023/02/22 00:26:09;;;;;;;87.00;34.30;;;;;;;6.27;100.00;101510.53;10500686;28;20025;-70
2023/02/22 00:31:10;;;;;;;89.70;38.90;;;;;;;6.17;100.00;101503.56;10519787;28;20090;-68
2023/02/22 00:36:11;;;;;;;71.05;38.10;;;;;;;6.26;100.00;101518.78;10500363;28;20032;-67
2023/02/22 00:41:11;;;;;;;69.10;37.08;;;;;;;6.22;100.00;101512.88;10516686;28;20119;-67
2023/02/22 00:46:12;;;;;;;82.30;43.00;;;;;;;6.10;100.00;101508.72;10500574;28;20376;-67
2023/02/22 00:51:13;;;;;;;77.05;41.42;;;;;;;5.96;100.00;101511.91;10499761;28;20433;-67
2023/02/22 00:56:13;;;;;;;82.22;42.08;;;;;;;5.85;100.00;101509.44;10499876;28;20039;-67
2023/02/22 01:01:13;;;;;;;68.95;40.78;;;;;;;5.81;100.00;101504.34;10499827;28;20036;-67
2023/02/22 01:06:14;;;;;;;69.55;34.60;;;;;;;5.81;100.00;101511.56;10498983;28;20037;-68
2023/02/22 01:11:15;;;;;;;73.03;41.60;;;;;;;5.67;100.00;101502.16;10498865;28;20056;-68
2023/02/22 01:16:16;;;;;;;88.07;43.78;;;;;;;5.55;100.00;101498.84;10514280;28;20483;-66
2023/02/22 01:21:16;;;;;;;69.82;42.35;;;;;;;5.48;100.00;101499.59;10498481;28;20143;-67
2023/02/22 01:26:16;;;;;;;71.07;39.30;;;;;;;5.31;100.00;101488.66;10496853;28;20488;-68
2023/02/22 01:31:17;;;;;;;72.85;38.13;;;;;;;5.33;100.00;101488.50;10497329;28;20068;-67
2023/02/22 01:36:17;;;;;;;69.35;38.85;;;;;;;5.25;100.00;101483.88;10497370;28;20032;-67
2023/02/22 01:41:18;;;;;;;79.50;39.00;;;;;;;5.21;100.00;101485.16;10497629;28;20477;-66
2023/02/22 01:46:25;;;;;;;87.47;41.45;;;;;;;5.22;100.00;101477.94;10496788;28;20039;-67
2023/02/22 01:51:37;;;;;;;81.93;39.40;;;;;;;5.17;100.00;101464.13;10513587;28;20079;-66
2023/02/22 01:56:39;;;;;;;80.75;43.50;;;;;;;5.12;100.00;101469.94;10496823;28;20025;-67
2023/02/22 02:01:41;;;;;;;74.10;39.30;;;;;;;5.15;100.00;101463.44;10496684;28;20089;-66
2023/02/22 02:06:42;;;;;;;89.82;44.70;;;;;;;5.07;100.00;101448.06;10512523;28;20490;-67
2023/02/22 02:11:42;;;;;;;74.07;42.22;;;;;;;5.05;100.00;101450.91;10484751;28;20171;-68
2023/02/22 02:16:45;;;;;;;84.35;42.70;;;;;;;5.04;100.00;101451.03;10508408;28;20060;-68
2023/02/22 02:21:49;;;;;;;97.63;45.83;;;;;;;5.01;100.00;101446.84;10503927;28;20087;-68
2023/02/22 02:27:04;;;;;;;77.60;43.65;;;;;;;5.07;100.00;101432.81;10513011;28;20033;-68
2023/02/22 02:32:18;;;;;;;91.38;48.00;;;;;;;4.92;100.00;101430.78;10496287;28;20021;-68
2023/02/22 02:37:32;;;;;;;98.57;45.67;;;;;;;4.97;100.00;101417.72;10479596;28;20440;-67
2023/02/22 02:42:34;;;;;;;94.40;49.17;;;;;;;5.00;100.00;101412.91;10495728;28;20396;-67
2023/02/22 02:47:36;;;;;;;103.90;45.20;;;;;;;4.94;100.00;101401.94;10495955;28;20108;-67
2023/02/22 02:52:37;;;;;;;92.75;46.05;;;;;;;4.99;100.00;101405.03;10512208;28;20353;-67
2023/02/22 02:57:40;;;;;;;80.75;44.70;;;;;;;4.96;100.00;101382.00;10494598;28;20056;-66
2023/02/22 03:03:05;;;;;;;91.05;46.65;;;;;;;5.01;100.00;101384.22;10496522;28;20116;-67
2023/02/22 03:08:31;;;;;;;122.53;54.05;;;;;;;4.89;100.00;101388.97;10509678;28;20031;-67
2023/02/22 03:14:00;;;;;;;111.13;50.00;;;;;;;4.86;100.00;101373.16;10504264;28;20377;-67
2023/02/22 03:19:03;;;;;;;102.85;47.97;;;;;;;4.82;100.00;101363.72;10505067;28;20413;-67
2023/02/22 03:24:08;;;;;;;97.28;47.10;;;;;;;4.84;100.00;101346.47;10503884;28;20383;-67
2023/02/22 03:29:09;;;;;;;96.60;46.00;;;;;;;4.82;100.00;101340.41;10501971;28;20062;-67
2023/02/22 03:34:12;;;;;;;93.55;49.67;;;;;;;4.84;100.00;101332.19;10501262;28;20111;-67
2023/02/22 03:39:14;;;;;;;97.43;45.42;;;;;;;4.82;100.00;101340.41;10501903;28;20375;-67
2023/02/22 03:44:17;;;;;;;111.93;52.08;;;;;;;4.76;100.00;101330.28;10501795;28;20079;-67
2023/02/22 03:49:30;;;;;;;90.05;47.25;;;;;;;4.76;100.00;101316.88;10518344;28;20380;-67
2023/02/22 03:54:30;;;;;;;94.78;46.15;;;;;;;4.73;100.00;101310.97;10502661;28;20027;-67
2023/02/22 03:59:31;;;;;;;88.00;45.40;;;;;;;4.70;100.00;101303.22;10484086;28;20039;-67
2023/02/22 04:04:31;;;;;;;92.72;49.05;;;;;;;4.64;100.00;101291.22;10518466;28;20164;-67
2023/02/22 04:09:32;;;;;;;83.35;42.85;;;;;;;4.70;100.00;101293.31;10517732;28;20070;-68
2023/02/22 04:14:32;;;;;;;102.65;50.92;;;;;;;4.67;100.00;101288.25;10501506;28;20057;-68
2023/02/22 04:19:32;;;;;;;85.60;46.92;;;;;;;4.57;100.00;101277.56;10501074;28;20452;-67
2023/02/22 04:24:33;;;;;;;91.82;46.25;;;;;;;4.52;100.00;101268.28;10500824;28;20098;-67
2023/02/22 04:29:33;;;;;;;92.38;47.20;;;;;;;4.50;100.00;101281.84;10502521;28;20096;-67
2023/02/22 04:34:34;;;;;;;92.07;49.63;;;;;;;4.42;100.00;101268.31;10508280;28;20043;-67
2023/02/22 04:39:34;;;;;;;84.63;43.20;;;;;;;4.48;100.00;101277.63;10511019;28;20469;-67
2023/02/22 04:44:34;;;;;;;87.45;47.20;;;;;;;4.55;100.00;101265.28;10500707;28;20040;-67
2023/02/22 04:49:35;;;;;;;91.30;42.85;;;;;;;4.43;100.00;101262.84;10500387;28;20107;-66
2023/02/22 04:54:35;;;;;;;79.97;46.85;;;;;;;4.42;100.00;101262.97;10500029;28;20028;-67
2023/02/22 04:59:35;;;;;;;85.13;38.60;;;;;;;4.49;100.00;101265.91;10497749;28;20038;-67
2023/02/22 05:04:39;;;;;;;76.00;37.83;;;;;;;4.43;100.00;101265.50;10499632;28;20032;-67
2023/02/22 05:09:39;;;;;;;93.85;41.13;;;;;;;4.51;100.00;101261.22;10514732;28;20033;-67
2023/02/22 05:14:40;;;;;;;83.90;38.20;;;;;;;4.46;100.00;101255.47;10497318;28;20060;-67
2023/02/22 05:19:40;;;;;;;81.50;36.50;;;;;;;4.52;100.00;101241.47;10499272;28;20044;-67
2023/02/22 05:24:42;;;;;;;75.20;35.53;;;;;;;4.58;100.00;101235.50;10497729;28;20502;-67
2023/02/22 05:29:43;;;;;;;78.43;36.20;;;;;;;4.63;100.00;101239.44;10497626;28;20037;-67
2023/02/22 05:34:44;;;;;;;89.10;37.55;;;;;;;4.61;100.00;101237.88;10500623;28;20078;-68
2023/02/22 05:39:45;;;;;;;84.95;40.65;;;;;;;4.61;100.00;101224.47;10514174;28;20045;-68
2023/02/22 05:44:45;;;;;;;66.03;37.80;;;;;;;4.59;100.00;101229.13;10499009;28;20483;-68
2023/02/22 05:49:46;;;;;;;70.05;31.95;;;;;;;4.54;100.00;101213.50;10497583;28;20051;-68
2023/02/22 05:54:46;;;;;;;86.95;42.47;;;;;;;4.64;100.00;101205.38;10497641;28;20039;-67
2023/02/22 05:59:46;;;;;;;85.57;40.78;;;;;;;4.60;100.00;101190.59;10447115;28;20442;-68
2023/02/22 06:04:47;;;;;;;56.10;30.52;;;;;;;4.65;100.00;101181.09;10555000;28;20468;-68
2023/02/22 06:09:47;;;;;;;71.05;40.08;;;;;;;4.57;100.00;101172.13;10539193;28;20472;-67
2023/02/22 06:14:48;;;;;;;85.63;39.80;;;;;;;4.55;100.00;101163.38;10539098;28;20097;-66
2023/02/22 06:19:48;;;;;;;66.40;35.78;;;;;;;4.61;100.00;101170.81;10537714;28;20410;-67
2023/02/22 06:24:48;;;;;;;79.78;37.88;;;;;;;4.59;100.00;101188.91;10538745;28;20419;-67
2023/02/22 06:29:49;;;;;;;62.40;31.20;;;;;;;4.63;100.00;101193.81;10538582;28;20032;-68
2023/02/22 06:34:49;;;;;;;51.70;28.33;;;;;;;4.60;100.00;101202.16;10536903;28;20032;-67
2023/02/22 06:39:50;;;;;;;67.72;34.03;;;;;;;4.70;100.00;101195.91;10555103;28;20380;-68
2023/02/22 06:44:50;;;;;;;59.17;31.17;;;;;;;4.61;100.00;101176.19;10542298;28;20067;-67
2023/02/22 06:49:54;;;;;;;57.85;31.80;;;;;;;4.62;100.00;101193.97;10552809;28;20032;-68
2023/02/22 06:54:55;;;;;;;66.40;34.75;;;;;;;4.76;100.00;101196.13;10551440;28;20032;-68
2023/02/22 06:59:56;;;;;;;57.88;33.28;;;;;;;4.87;100.00;101193.22;10549916;28;20399;-67
2023/02/22 07:04:56;;;;;;;65.18;34.72;;;;;;;4.93;100.00;101196.28;10562526;28;20467;-68
2023/02/22 07:09:57;;;;;;;79.93;36.05;;;;;;;4.89;100.00;101201.97;10546541;28;20048;-68
2023/02/22 07:14:57;;;;;;;66.65;35.30;;;;;;;4.95;100.00;101199.69;10545220;28;20105;-68
2023/02/22 07:19:57;;;;;;;47.10;24.73;;;;;;;4.98;100.00;101210.06;10545136;28;20105;-68
2023/02/22 07:24:59;;;;;;;52.05;29.00;;;;;;;5.00;100.00;101203.56;10545562;28;20028;-68
2023/02/22 07:29:59;;;;;;;51.85;31.42;;;;;;;5.02;100.00;101204.25;10543799;28;20040;-68
2023/02/22 07:35:01;;;;;;;47.35;27.33;;;;;;;5.02;100.00;101208.78;10543959;28;20471;-67
2023/02/22 07:40:02;;;;;;;59.90;31.17;;;;;;;4.99;100.00;101222.50;10543837;28;20123;-68
2023/02/22 07:45:03;;;;;;;46.00;28.88;;;;;;;5.04;100.00;101213.00;10544898;28;20081;-67
2023/02/22 07:50:04;;;;;;;52.85;29.58;;;;;;;5.16;100.00;101199.34;10544719;28;20428;-67
2023/02/22 07:55:05;;;;;;;50.78;28.52;;;;;;;5.25;100.00;101196.56;10559189;28;20031;-67
2023/02/22 08:00:06;;;;;;;45.92;28.40;;;;;;;5.24;100.00;101177.94;10543931;28;20365;-68
2023/02/22 08:05:09;;;;;;;54.97;31.30;;;;;;;5.22;100.00;101190.66;10542775;28;20040;-68
2023/02/22 08:10:10;;;;;;;42.65;27.83;;;;;;;5.32;100.00;101194.94;10543156;28;20133;-67
2023/02/22 08:15:18;;;;;;;41.35;26.85;;;;;;;5.43;100.00;101175.06;10542521;28;20051;-68
2023/02/22 08:20:19;;;;;;;50.88;28.58;;;;;;;5.41;100.00;101169.00;10542659;28;20050;-68
2023/02/22 08:25:24;;;;;;;46.47;26.25;;;;;;;5.40;100.00;101166.47;10558954;28;20040;-68
2023/02/22 08:30:24;;;;;;;56.90;31.35;;;;;;;5.49;100.00;101154.78;10557612;28;20028;-68
2023/02/22 08:35:26;;;;;;;41.67;28.25;;;;;;;5.51;100.00;101139.34;10542627;28;20039;-67
2023/02/22 08:40:28;;;;;;;43.80;28.33;;;;;;;5.67;100.00;101147.50;10542367;28;20483;-67
2023/02/22 08:45:29;;;;;;;55.60;32.13;;;;;;;5.78;100.00;101135.66;10541086;28;20034;-67
2023/02/22 08:50:32;;;;;;;62.13;31.08;;;;;;;5.74;100.00;101110.94;10541941;28;20031;-67
2023/02/22 08:55:34;;;;;;;52.40;31.45;;;;;;;5.97;100.00;101131.91;10540501;28;20024;-68
2023/02/22 09:00:35;;;;;;;43.38;28.20;;;;;;;6.16;100.00;101128.94;10539941;28;20028;-67
2023/02/22 09:05:35;;;;;;;48.20;27.17;;;;;;;6.29;100.00;101126.63;10557081;28;20071;-67
2023/02/22 09:10:36;;;;;;;44.78;28.33;;;;;;;6.47;100.00;101120.25;10544498;28;20427;-68
2023/02/22 09:15:37;;;;;;;38.80;25.30;;;;;;;6.56;100.00;101119.28;10544091;28;20064;-68
2023/02/22 09:20:37;;;;;;;44.15;26.08;;;;;;;6.56;100.00;101143.50;10541378;28;20059;-68
2023/02/22 09:25:39;;;;;;;44.80;28.08;;;;;;;6.78;100.00;101147.41;10540770;28;20043;-67
2023/02/22 09:30:40;;;;;;;38.08;24.38;;;;;;;6.96;100.00;101152.63;10555560;28;20049;-67
2023/02/22 09:35:41;;;;;;;43.90;24.70;;;;;;;7.06;100.00;101182.09;10538435;28;20036;-68
2023/02/22 09:40:44;;;;;;;38.75;23.77;;;;;;;7.14;100.00;101157.84;10539335;28;20036;-68
2023/02/22 09:45:50;;;;;;;45.55;24.63;;;;;;;7.13;100.00;101157.00;10555277;28;20087;-67
2023/02/22 09:50:52;;;;;;;35.70;23.07;;;;;;;7.18;100.00;101148.44;10539604;28;20027;-67
2023/02/22 09:55:56;;;;;;;42.97;24.35;;;;;;;7.23;100.00;101138.81;10539353;28;20400;-67
2023/02/22 10:01:08;;;;;;;24.75;19.50;;;;;;;7.40;100.00;101131.56;10537864;28;20028;-67
2023/02/22 10:06:10;;;;;;;29.88;20.75;;;;;;;7.32;100.00;101149.59;10538638;28;20031;-68
2023/02/22 10:11:33;;;;;;;38.53;20.95;;;;;;;7.27;100.00;101154.63;10537908;28;20031;-68
2023/02/22 10:16:45;;;;;;;32.17;20.77;;;;;;;7.23;100.00;101157.66;10537677;28;20500;-68
2023/02/22 10:21:56;;;;;;;30.77;19.45;;;;;;;7.29;100.00;101163.41;10553979;28;20092;-67
2023/02/22 10:26:56;;;;;;;27.75;19.67;;;;;;;7.23;100.00;101167.59;10553434;28;20551;-68
2023/02/22 10:31:58;;;;;;;26.60;18.83;;;;;;;7.30;100.00;101157.81;10554344;28;20039;-67
2023/02/22 10:37:02;;;;;;;27.05;19.30;;;;;;;7.56;100.00;101148.69;10537756;28;20085;-68
2023/02/22 10:42:07;;;;;;;29.65;18.50;;;;;;;7.86;100.00;101152.50;10538082;28;20040;-67
2023/02/22 10:47:09;;;;;;;31.05;19.27;;;;;;;8.31;100.00;101142.88;10537530;28;20475;-68
2023/02/22 10:52:24;;;;;;;33.20;20.27;;;;;;;8.57;100.00;101118.28;10538191;28;20459;-67
2023/02/22 10:57:28;;;;;;;25.77;15.45;;;;;;;8.51;100.00;101119.84;10539127;28;20446;-67
2023/02/22 11:02:30;;;;;;;24.73;16.95;;;;;;;8.41;100.00;101130.03;10538026;28;20085;-67
2023/02/22 11:07:34;;;;;;;28.48;17.95;;;;;;;8.45;100.00;101122.41;10536831;28;20028;-68
2023/02/22 11:12:36;;;;;;;30.40;19.75;;;;;;;8.37;100.00;101117.88;10553530;28;20048;-68
2023/02/22 11:17:37;;;;;;;30.45;17.90;;;;;;;8.63;100.00;101112.16;10537020;28;20082;-68
2023/02/22 11:22:39;;;;;;;23.55;15.18;;;;;;;8.69;100.00;101105.22;10536699;28;20048;-68
2023/02/22 11:27:42;;;;;;;28.52;17.48;;;;;;;8.72;100.00;101105.69;10555374;28;20071;-68
2023/02/22 11:32:59;;;;;;;27.30;17.80;;;;;;;8.67;100.00;101104.53;10546464;28;20100;-68
2023/02/22 11:38:19;;;;;;;31.23;18.50;;;;;;;8.67;100.00;101083.78;10564461;28;20028;-68
2023/02/22 11:43:20;;;;;;;27.30;17.00;;;;;;;8.80;100.00;101097.50;10545148;28;20032;-68
2023/02/22 11:48:22;;;;;;;28.10;18.02;;;;;;;9.05;100.00;101089.22;10545389;28;20036;-68
2023/02/22 11:53:43;;;;;;;28.67;20.02;;;;;;;9.26;100.00;101075.00;10543209;28;20028;-68
2023/02/22 11:59:20;;;;;;;26.67;16.65;;;;;;;9.54;100.00;101077.91;10545353;28;20100;-68
2023/02/22 12:05:00;;;;;;;27.60;19.13;;;;;;;9.55;100.00;101061.50;10543086;28;20108;-68
2023/02/22 12:10:31;;;;;;;26.92;18.33;;;;;;;9.66;100.00;101064.75;10542263;28;20036;-71
2023/02/22 12:15:58;;;;;;;26.30;17.90;;;;;;;9.79;100.00;101070.31;10543326;28;20044;-68
2023/02/22 12:21:00;;;;;;;27.65;19.83;;;;;;;9.74;100.00;101079.03;10524975;28;20480;-68
2023/02/22 12:26:04;;;;;;;23.27;17.60;;;;;;;9.97;100.00;101075.34;10524680;28;20074;-68
2023/02/22 12:31:18;;;;;;;27.25;19.13;;;;;;;9.85;100.00;101072.28;10542364;28;20123;-68
2023/02/22 12:36:20;;;;;;;26.17;18.48;;;;;;;9.91;100.00;101070.69;10541573;28;20372;-68
2023/02/22 12:41:39;;;;;;;29.95;17.95;;;;;;;10.02;100.00;101067.53;10540650;28;20452;-68
2023/02/22 12:46:41;;;;;;;21.60;16.23;;;;;;;10.22;100.00;101068.56;10541424;28;20071;-67
2023/02/22 12:51:45;;;;;;;33.13;21.15;;;;;;;10.44;100.00;101069.47;10558401;28;20468;-68
2023/02/22 12:56:55;;;;;;;25.92;18.23;;;;;;;10.57;100.00;101073.34;10542693;28;20103;-68
2023/02/22 13:02:19;;;;;;;33.80;21.00;;;;;;;10.76;100.00;101070.00;10540690;28;20028;-67
2023/02/22 13:07:53;;;;;;;31.60;20.30;;;;;;;10.60;100.00;101067.53;10541778;28;20563;-68
2023/02/22 13:12:56;;;;;;;33.53;21.05;;;;;;;10.61;100.00;101066.50;10541339;28;20028;-68
2023/02/22 13:18:12;;;;;;;30.85;20.10;;;;;;;10.65;100.00;101059.66;10539938;28;20506;-68
2023/02/22 13:23:18;;;;;;;28.75;21.33;;;;;;;10.63;100.00;101048.19;10556170;28;20032;-68
2023/02/22 13:28:37;;;;;;;25.37;19.30;;;;;;;10.66;100.00;101055.94;10555400;28;20020;-68
2023/02/22 13:34:05;;;;;;;25.90;18.92;;;;;;;10.61;100.00;101051.09;10539446;28;20028;-68
2023/02/22 13:39:13;;;;;;;29.08;21.00;;;;;;;10.54;100.00;101058.31;10538717;28;20047;-68
2023/02/22 13:44:44;;;;;;;27.58;19.48;;;;;;;10.53;100.00;101066.63;10538794;28;20474;-69
2023/02/22 13:50:01;;;;;;;26.50;20.00;;;;;;;10.33;100.00;101061.84;10547482;28;20028;-68
2023/02/22 13:55:09;;;;;;;26.58;20.67;;;;;;;10.37;100.00;101067.72;10551338;28;20463;-67
2023/02/22 14:00:19;;;;;;;24.15;18.77;;;;;;;10.28;100.00;101064.31;10540292;28;20032;-68
2023/02/22 14:05:38;;;;;;;36.05;21.83;;;;;;;10.36;100.00;101069.59;10539675;28;20032;-67
2023/02/22 14:10:51;;;;;;;28.65;19.75;;;;;;;10.46;100.00;101064.72;10539232;28;20036;-68
2023/02/22 14:16:03;;;;;;;26.38;19.83;;;;;;;10.45;100.00;101073.84;10539016;28;20087;-69
2023/02/22 14:21:13;;;;;;;32.95;23.33;;;;;;;10.31;100.00;101076.63;10542249;28;20048;-67
2023/02/22 14:26:30;;;;;;;24.67;20.17;;;;;;;10.41;100.00;101077.97;10547894;28;20387;-68
2023/02/22 14:31:32;;;;;;;28.42;21.95;;;;;;;10.36;100.00;101088.53;10523622;28;20126;-68
2023/02/22 14:36:38;;;;;;;30.65;22.33;;;;;;;10.28;100.00;101085.13;10538307;28;20024;-68
2023/02/22 14:41:41;;;;;;;31.67;20.27;;;;;;;10.17;100.00;101086.41;10539362;28;20106;-68
2023/02/22 14:46:42;;;;;;;41.47;21.35;;;;;;;10.22;100.00;101097.50;10539099;28;20268;-68
2023/02/22 14:51:48;;;;;;;33.83;22.30;;;;;;;10.10;100.00;101110.69;10537328;28;20460;-68
2023/02/22 14:57:13;;;;;;;29.73;22.60;;;;;;;9.96;100.00;101115.09;10537133;28;20031;-68
2023/02/22 15:02:14;;;;;;;33.13;23.95;;;;;;;9.97;100.00;101116.75;10537399;28;20024;-68
2023/02/22 15:07:26;;;;;;;35.90;26.27;;;;;;;9.87;100.00;101115.38;10542547;28;20036;-69
2023/02/22 15:12:29;;;;;;;34.83;23.30;;;;;;;9.85;100.00;101114.72;10544933;28;20486;-68
2023/02/22 15:17:30;;;;;;;37.10;24.85;;;;;;;9.94;100.00;101117.13;10545957;28;20360;-68
2023/02/22 15:22:34;;;;;;;39.17;29.60;;;;;;;9.80;100.00;101115.31;10545804;28;20032;-69
2023/02/22 15:27:35;;;;;;;44.58;30.38;;;;;;;9.79;100.00;101119.00;10544252;28;20024;-68
2023/02/22 15:32:40;;;;;;;54.13;37.38;;;;;;;9.75;100.00;101110.44;10527403;28;20528;-68
2023/02/22 15:37:40;;;;;;;42.15;32.40;;;;;;;9.73;100.00;101122.47;10527203;28;20036;-68
2023/02/22 15:42:49;;;;;;;47.30;36.53;;;;;;;9.47;100.00;101120.22;10544059;28;20151;-67
2023/02/22 15:47:49;;;;;;;54.25;35.65;;;;;;;9.47;100.00;101134.56;10543772;28;20040;-68
2023/02/22 15:53:00;;;;;;;54.90;38.00;;;;;;;9.38;100.00;101148.34;10543943;28;20024;-69
2023/02/22 15:58:07;;;;;;;51.88;39.55;;;;;;;9.26;100.00;101127.19;10543442;28;20367;-67
2023/02/22 16:03:15;;;;;;;61.65;42.95;;;;;;;9.25;100.00;101140.84;10543630;28;20040;-68
2023/02/22 16:08:24;;;;;;;65.28;42.03;;;;;;;9.17;100.00;101130.97;10532216;28;20035;-69
2023/02/22 16:13:27;;;;;;;78.80;45.10;;;;;;;9.13;100.00;101137.78;10533246;28;20024;-65
2023/02/22 16:18:32;;;;;;;65.97;43.03;;;;;;;9.07;100.00;101130.41;10549224;28;20048;-69
2023/02/22 16:23:51;;;;;;;59.63;44.15;;;;;;;8.99;100.00;101128.59;10543496;28;20040;-67
2023/02/22 16:28:52;;;;;;;65.10;42.83;;;;;;;8.94;100.00;101140.97;10542602;28;20028;-69
2023/02/22 16:33:53;;;;;;;60.67;39.53;;;;;;;8.95;100.00;101137.25;10542920;28;20028;-69
2023/02/22 16:38:53;;;;;;;68.43;43.97;;;;;;;8.97;100.00;101140.63;10541920;28;20054;-68
2023/02/22 16:43:54;;;;;;;57.33;40.75;;;;;;;8.89;100.00;101141.50;10542378;28;20388;-68
2023/02/22 16:48:54;;;;;;;60.40;41.08;;;;;;;8.88;100.00;101161.44;10541186;28;20039;-69
2023/02/22 16:53:55;;;;;;;65.38;41.38;;;;;;;8.83;100.00;101161.13;10541279;28;20024;-68
2023/02/22 16:58:55;;;;;;;59.60;36.97;;;;;;;8.78;100.00;101158.97;10556706;28;20536;-68
2023/02/22 17:03:56;;;;;;;67.85;41.40;;;;;;;8.74;100.00;101163.06;10540635;28;20036;-68
2023/02/22 17:08:56;;;;;;;60.17;39.47;;;;;;;8.74;100.00;101159.50;10541668;28;20039;-67
2023/02/22 17:13:57;;;;;;;55.10;37.92;;;;;;;8.72;100.00;101165.09;10539882;28;20510;-67
2023/02/22 17:18:57;;;;;;;52.22;34.53;;;;;;;8.71;100.00;101168.81;10557244;28;20059;-68
2023/02/22 17:23:58;;;;;;;53.95;35.30;;;;;;;8.75;100.00;101172.00;10540785;28;20062;-68
2023/02/22 17:28:58;;;;;;;55.80;33.25;;;;;;;8.73;100.00;101169.47;10538820;28;20101;-69
2023/02/22 17:34:03;;;;;;;47.22;32.38;;;;;;;8.73;100.00;101179.44;10540659;28;20024;-68
2023/02/22 17:39:04;;;;;;;42.47;31.42;;;;;;;8.66;100.00;101173.06;10540751;28;20161;-67
2023/02/22 17:44:04;;;;;;;47.60;31.88;;;;;;;8.58;100.00;101185.59;10539684;28;20039;-68
2023/02/22 17:49:05;;;;;;;53.72;32.55;;;;;;;8.51;100.00;101192.69;10540025;28;20035;-68
2023/02/22 17:54:06;;;;;;;51.92;33.13;;;;;;;8.49;100.00;101194.75;10522615;28;20028;-68
2023/02/22 17:59:07;;;;;;;62.15;36.08;;;;;;;8.46;100.00;101196.97;10556036;28;20036;-68
2023/02/22 18:04:08;;;;;;;53.03;33.55;;;;;;;8.50;100.00;101195.59;10521824;28;20035;-68
2023/02/22 18:09:16;;;;;;;55.30;34.08;;;;;;;8.49;100.00;101200.16;10539340;28;20039;-68
2023/02/22 18:14:16;;;;;;;43.47;29.35;;;;;;;8.53;100.00;101211.44;10554208;28;20051;-67
2023/02/22 18:19:18;;;;;;;51.47;31.02;;;;;;;8.55;100.00;101212.09;10555049;28;20076;-67
2023/02/22 18:24:18;;;;;;;53.92;32.15;;;;;;;8.59;100.00;101218.84;10538785;28;20031;-68
2023/02/22 18:29:18;;;;;;;56.15;32.83;;;;;;;8.59;100.00;101216.97;10542445;28;20040;-68
2023/02/22 18:34:23;;;;;;;53.80;33.75;;;;;;;8.55;100.00;101226.44;10543283;28;20032;-68
2023/02/22 18:39:24;;;;;;;55.33;34.05;;;;;;;8.54;100.00;101221.22;10540134;28;20042;-67
2023/02/22 18:44:26;;;;;;;44.75;32.03;;;;;;;8.58;100.00;101228.78;10563294;28;20387;-68
2023/02/22 18:49:27;;;;;;;47.08;32.42;;;;;;;8.53;100.00;101230.34;10546070;28;20039;-67
2023/02/22 18:54:27;;;;;;;51.35;33.85;;;;;;;8.53;100.00;101224.94;10546368;28;20430;-68
2023/02/22 18:59:28;;;;;;;54.50;34.80;;;;;;;8.51;100.00;101218.84;10545702;28;20066;-68
2023/02/22 19:04:28;;;;;;;53.72;33.15;;;;;;;8.51;100.00;101221.56;10546001;28;20123;-68
2023/02/22 19:09:29;;;;;;;49.25;31.40;;;;;;;8.47;100.00;101220.25;10545335;28;20032;-68
2023/02/22 19:14:29;;;;;;;51.05;31.52;;;;;;;8.43;100.00;101225.16;10546579;28;20402;-68
2023/02/22 19:19:30;;;;;;;55.50;33.70;;;;;;;8.36;100.00;101232.25;10546342;28;20044;-68
2023/02/22 19:24:30;;;;;;;50.38;31.45;;;;;;;8.33;100.00;101230.72;10546296;28;20095;-68
2023/02/22 19:29:31;;;;;;;51.15;32.63;;;;;;;8.32;100.00;101226.31;10544369;28;20036;-68
2023/02/22 19:34:31;;;;;;;55.75;33.95;;;;;;;8.31;100.00;101231.91;10544480;28;20031;-67
2023/02/22 19:39:32;;;;;;;57.38;35.83;;;;;;;8.26;100.00;101231.56;10544583;28;20062;-68
2023/02/22 19:44:32;;;;;;;51.65;31.13;;;;;;;8.27;100.00;101233.28;10561213;28;20032;-68
2023/02/22 19:49:35;;;;;;;54.50;31.02;;;;;;;8.23;100.00;101234.63;10544942;28;20145;-68
2023/02/22 19:54:36;;;;;;;51.40;33.88;;;;;;;8.23;100.00;101237.31;10542493;28;20032;-67
2023/02/22 19:59:36;;;;;;;57.20;36.85;;;;;;;8.20;100.00;101241.22;10543837;28;20096;-66
2023/02/22 20:04:37;;;;;;;65.38;37.17;;;;;;;8.19;100.00;101246.78;10544663;28;20131;-66
2023/02/22 20:09:41;;;;;;;56.55;35.28;;;;;;;8.15;100.00;101249.00;10543612;28;20044;-65
2023/02/22 20:14:42;;;;;;;53.40;32.85;;;;;;;8.14;100.00;101255.41;10526712;28;20123;-64
2023/02/22 20:19:42;;;;;;;52.15;33.42;;;;;;;8.13;100.00;101256.41;10544674;28;20067;-65
2023/02/22 20:24:43;;;;;;;56.83;33.45;;;;;;;8.15;100.00;101263.31;10541023;28;20141;-65
2023/02/22 20:29:43;;;;;;;53.85;37.45;;;;;;;8.09;100.00;101266.69;10524733;28;20032;-66
2023/02/22 20:34:45;;;;;;;61.75;36.80;;;;;;;8.09;100.00;101264.00;10524467;28;20031;-66
2023/02/22 20:39:45;;;;;;;61.80;36.83;;;;;;;8.07;100.00;101267.88;10541412;28;20032;-67
2023/02/22 20:44:48;;;;;;;54.17;35.35;;;;;;;8.07;100.00;101266.06;10544794;28;20032;-66
2023/02/22 20:49:49;;;;;;;65.95;36.47;;;;;;;8.09;100.00;101263.16;10548453;28;20081;-66
2023/02/22 20:54:49;;;;;;;67.80;34.90;;;;;;;8.07;100.00;101263.34;10529390;28;20078;-65
2023/02/22 20:59:49;;;;;;;52.10;33.67;;;;;;;8.09;100.00;101257.78;10542513;28;20040;-67
2023/02/22 21:04:50;;;;;;;56.10;35.47;;;;;;;8.08;100.00;101256.94;10542058;28;20032;-66
2023/02/22 21:09:51;;;;;;;56.65;35.40;;;;;;;8.09;100.00;101273.97;10541988;28;20047;-65
2023/02/22 21:14:52;;;;;;;61.40;35.00;;;;;;;8.07;100.00;101266.06;10540124;28;20089;-65
2023/02/22 21:19:54;;;;;;;71.13;37.15;;;;;;;8.08;100.00;101267.72;10541723;28;20052;-66
2023/02/22 21:24:54;;;;;;;64.88;37.55;;;;;;;8.09;100.00;101265.88;10542209;28;20031;-66
2023/02/22 21:29:57;;;;;;;71.22;40.42;;;;;;;8.09;100.00;101272.09;10541315;28;20039;-67
2023/02/22 21:34:57;;;;;;;58.17;38.22;;;;;;;8.08;100.00;101275.81;10540158;28;20036;-65
2023/02/22 21:39:58;;;;;;;60.15;38.42;;;;;;;8.05;100.00;101276.16;10539472;28;20036;-65
2023/02/22 21:44:58;;;;;;;55.75;37.20;;;;;;;8.04;100.00;101273.63;10540851;28;20487;-66
2023/02/22 21:50:00;;;;;;;54.42;36.08;;;;;;;8.04;100.00;101268.22;10539233;28;20032;-66
2023/02/22 21:55:00;;;;;;;49.15;36.08;;;;;;;8.06;100.00;101271.59;10555545;28;20038;-65
2023/02/22 22:00:11;;;;;;;66.35;37.05;;;;;;;8.03;100.00;101285.44;10538314;28;20043;-65
2023/02/22 22:05:32;;;;;;;62.08;38.63;;;;;;;8.00;100.00;101270.44;10539843;28;20054;-66
2023/02/22 22:10:33;;;;;;;57.65;38.97;;;;;;;7.96;100.00;101269.09;10539642;28;20040;-65
2023/02/22 22:15:36;;;;;;;79.07;40.50;;;;;;;7.95;100.00;101270.13;10538181;28;20036;-65
2023/02/22 22:20:37;;;;;;;60.97;37.08;;;;;;;7.94;100.00;101268.41;10538991;28;20435;-65
2023/02/22 22:25:38;;;;;;;60.58;39.13;;;;;;;7.94;100.00;101287.28;10495816;28;20047;-64
2023/02/22 22:30:38;;;;;;;61.85;38.15;;;;;;;7.92;100.00;101270.47;10495370;28;20043;-65
2023/02/22 22:35:40;;;;;;;66.05;38.97;;;;;;;7.94;100.00;101271.09;10495466;28;20476;-64
2023/02/22 22:40:41;;;;;;;60.10;38.35;;;;;;;7.91;100.00;101276.84;10511470;28;20403;-66